Terminal Aerodrome Forecast
Issued by NWS Shreveport, LA

Home | Current Version | Previous Version | Text Only | Print | Product List | Glossary On
Versions: 1 2 3 4 5 6 7 8 9 10 11 12
000
FTUS44 KSHV 250549
TAFTXK
TAF
KTXK 250549Z 2506/2606 18006KT P6SM SCT250
     FM250900 VRB03KT P6SM SCT180 SCT250
     FM251300 23002KT P6SM BKN140 BKN250
     FM251600 32004KT P6SM BKN120 BKN180
     FM251900 36005KT P6SM SCT120
     FM260000 04003KT P6SM SKC=

USA.gov is the U.S. government's official web portal to all federal, state and local government web resources and services.